Time;durP1;ratioP1;P1;durP2;ratioP2;P2;SDS_P1;SDS_P2;PMS_P1;PMS_P2;Temp;Humidity;BMP_temperature;BMP_pressure;BME280_temperature;BME280_humidity;BME280_pressure;Samples;Min_cycle;Max_cycle;Signal;HPM_P1;HPM_P2
2020/12/22 00:01:20;;;;;;;15.65;7.28;;;6.20;99.90;;;;;;4960823;28;20049;-68
2020/12/22 00:03:47;;;;;;;15.80;7.97;;;6.20;99.90;;;;;;4978419;28;20142;-68
2020/12/22 00:06:13;;;;;;;15.85;7.85;;;6.30;99.90;;;;;;4977969;28;20510;-67
2020/12/22 00:08:39;;;;;;;14.77;7.72;;;6.30;99.90;;;;;;4976708;28;20201;-68
2020/12/22 00:11:04;;;;;;;18.13;7.90;;;6.30;99.90;;;;;;4966429;28;20065;-68
2020/12/22 00:13:30;;;;;;;16.40;8.27;;;6.40;99.90;;;;;;4976141;28;20049;-68
2020/12/22 00:15:56;;;;;;;17.73;8.00;;;6.30;99.90;;;;;;4978078;28;20865;-68
2020/12/22 00:18:22;;;;;;;14.48;8.30;;;6.40;99.90;;;;;;4975277;28;20062;-69
2020/12/22 00:20:49;;;;;;;16.55;8.57;;;6.40;99.90;;;;;;4979400;28;20042;-68
2020/12/22 00:23:14;;;;;;;15.63;8.48;;;6.40;99.90;;;;;;4977299;28;20040;-68
2020/12/22 00:25:45;;;;;;;16.10;8.38;;;6.40;99.90;;;;;;4968486;28;20026;-68
2020/12/22 00:28:12;;;;;;;16.77;8.38;;;6.40;99.90;;;;;;4968857;28;20089;-68
2020/12/22 00:30:39;;;;;;;18.05;8.80;;;6.40;99.90;;;;;;4970514;28;20161;-68
2020/12/22 00:33:05;;;;;;;17.17;9.30;;;6.50;99.90;;;;;;4980336;28;20035;-68
2020/12/22 00:35:31;;;;;;;18.42;9.23;;;6.60;99.90;;;;;;4974786;28;20332;-68
2020/12/22 00:37:58;;;;;;;19.25;9.02;;;6.50;99.90;;;;;;4965837;28;20030;-67
2020/12/22 00:40:24;;;;;;;18.23;9.20;;;6.50;99.90;;;;;;4951629;28;20462;-68
2020/12/22 00:42:51;;;;;;;18.38;9.73;;;6.50;99.90;;;;;;4978081;28;20056;-68
2020/12/22 00:45:17;;;;;;;17.98;9.40;;;6.60;99.90;;;;;;4976222;28;20034;-67
2020/12/22 00:47:42;;;;;;;18.20;9.60;;;6.60;99.90;;;;;;4979422;28;20062;-67
2020/12/22 00:50:08;;;;;;;17.70;8.93;;;6.60;99.90;;;;;;4980181;28;20109;-68
2020/12/22 00:52:34;;;;;;;19.58;9.57;;;6.60;99.90;;;;;;4967931;28;20035;-67
2020/12/22 00:55:00;;;;;;;21.83;9.05;;;6.70;99.90;;;;;;4977702;28;20380;-68
2020/12/22 00:57:26;;;;;;;21.38;10.18;;;6.70;99.90;;;;;;4962998;28;20089;-67
2020/12/22 01:00:05;;;;;;;19.70;10.23;;;6.70;99.90;;;;;;4959957;28;20034;-67
2020/12/22 01:02:31;;;;;;;19.77;10.48;;;6.70;99.90;;;;;;4969612;28;20031;-67
2020/12/22 01:04:57;;;;;;;20.08;9.43;;;6.70;99.90;;;;;;4977744;28;20022;-67
2020/12/22 01:07:22;;;;;;;19.35;9.52;;;6.60;99.90;;;;;;4975429;28;20759;-67
2020/12/22 01:09:48;;;;;;;19.75;10.02;;;6.70;99.90;;;;;;4973763;28;20030;-67
2020/12/22 01:12:14;;;;;;;17.77;9.40;;;6.70;99.90;;;;;;4968231;28;20034;-67
2020/12/22 01:14:39;;;;;;;22.45;10.95;;;6.70;99.90;;;;;;4969822;28;20787;-67
2020/12/22 01:17:05;;;;;;;19.95;10.13;;;6.60;99.90;;;;;;4977475;28;20026;-67
2020/12/22 01:19:31;;;;;;;20.63;10.63;;;6.60;99.90;;;;;;4975719;28;20039;-67
2020/12/22 01:21:57;;;;;;;20.23;10.13;;;6.60;99.90;;;;;;4977902;28;20034;-68
2020/12/22 01:24:23;;;;;;;24.50;11.38;;;6.70;99.90;;;;;;4971018;28;20045;-67
2020/12/22 01:26:50;;;;;;;21.55;10.43;;;6.70;99.90;;;;;;4977935;28;20109;-67
2020/12/22 01:29:16;;;;;;;19.00;9.30;;;6.70;99.90;;;;;;4969673;28;20208;-67
2020/12/22 01:31:42;;;;;;;19.67;10.68;;;6.70;99.90;;;;;;4977599;28;20524;-68
2020/12/22 01:34:07;;;;;;;20.35;10.07;;;6.70;99.90;;;;;;4965473;28;20043;-67
2020/12/22 01:36:33;;;;;;;20.77;10.35;;;6.70;99.90;;;;;;4960878;28;20038;-70
2020/12/22 01:38:59;;;;;;;18.13;9.65;;;6.70;99.90;;;;;;4972713;28;20038;-69
2020/12/22 01:41:30;;;;;;;19.23;10.85;;;6.70;99.90;;;;;;4975764;28;20031;-69
2020/12/22 01:44:08;;;;;;;20.98;10.25;;;6.70;99.90;;;;;;4959838;28;20841;-68
2020/12/22 01:46:46;;;;;;;22.15;10.68;;;6.70;99.90;;;;;;4975354;28;20597;-68
2020/12/22 01:49:23;;;;;;;22.38;11.27;;;6.60;99.90;;;;;;4977347;28;20129;-68
2020/12/22 01:51:50;;;;;;;22.30;10.88;;;6.60;99.90;;;;;;4976905;28;20052;-68
2020/12/22 01:54:17;;;;;;;25.00;11.68;;;6.50;99.90;;;;;;4970347;28;20827;-69
2020/12/22 01:56:43;;;;;;;20.48;11.20;;;6.50;99.90;;;;;;4977690;28;20034;-68
2020/12/22 01:59:10;;;;;;;21.55;11.27;;;6.50;99.90;;;;;;4976298;28;20042;-68
2020/12/22 02:01:36;;;;;;;23.42;11.25;;;6.50;99.90;;;;;;4977112;28;20143;-68
2020/12/22 02:04:03;;;;;;;24.73;12.02;;;6.40;99.90;;;;;;4977114;28;20026;-69
2020/12/22 02:06:31;;;;;;;24.35;11.95;;;6.40;99.90;;;;;;4975100;28;20742;-68
2020/12/22 02:08:57;;;;;;;27.45;12.82;;;6.40;99.90;;;;;;4972264;28;20209;-67
2020/12/22 02:11:27;;;;;;;23.40;11.50;;;6.40;99.90;;;;;;4975419;28;20029;-68
2020/12/22 02:13:54;;;;;;;25.42;11.85;;;6.40;99.90;;;;;;4976453;28;20038;-68
2020/12/22 02:16:20;;;;;;;24.40;12.63;;;6.30;99.90;;;;;;4975561;28;20137;-68
2020/12/22 02:18:47;;;;;;;26.88;12.63;;;6.20;99.90;;;;;;4976211;28;20101;-69
2020/12/22 02:21:13;;;;;;;24.63;12.88;;;6.10;99.90;;;;;;4975915;28;20030;-68
2020/12/22 02:23:39;;;;;;;25.55;12.07;;;6.10;99.90;;;;;;4975548;28;20037;-68
2020/12/22 02:26:05;;;;;;;27.23;12.95;;;6.10;99.90;;;;;;4969803;28;20034;-68
2020/12/22 02:28:32;;;;;;;25.15;12.35;;;6.00;99.90;;;;;;4974426;28;20135;-68
2020/12/22 02:31:02;;;;;;;26.48;13.18;;;6.10;99.90;;;;;;4958504;28;20038;-68
2020/12/22 02:33:29;;;;;;;29.02;13.55;;;6.10;99.90;;;;;;4974299;28;20049;-68
2020/12/22 02:35:55;;;;;;;32.20;13.25;;;6.00;99.90;;;;;;4975527;28;20038;-68
2020/12/22 02:38:21;;;;;;;27.13;13.40;;;6.00;99.90;;;;;;4974691;28;20030;-68
2020/12/22 02:40:47;;;;;;;23.75;12.80;;;5.90;99.90;;;;;;4976781;28;20041;-67
2020/12/22 02:43:13;;;;;;;29.38;13.73;;;6.00;99.90;;;;;;4975282;28;20050;-68
2020/12/22 02:45:41;;;;;;;30.77;13.35;;;6.00;99.90;;;;;;4974862;28;20037;-68
2020/12/22 02:48:08;;;;;;;27.88;12.82;;;6.00;99.90;;;;;;4977405;28;20042;-68
2020/12/22 02:50:35;;;;;;;33.72;13.55;;;6.00;99.90;;;;;;4956295;28;20046;-68
2020/12/22 02:53:01;;;;;;;35.33;14.82;;;6.10;99.90;;;;;;4976184;28;20037;-68
2020/12/22 02:55:26;;;;;;;28.65;13.73;;;6.10;99.90;;;;;;4974051;28;20421;-70
2020/12/22 02:57:52;;;;;;;38.33;14.55;;;6.10;99.90;;;;;;4977748;28;20038;-69
2020/12/22 03:00:19;;;;;;;30.67;14.65;;;6.20;99.90;;;;;;4975476;28;20038;-68
2020/12/22 03:02:45;;;;;;;27.63;13.32;;;6.10;99.90;;;;;;4976402;28;20477;-70
2020/12/22 03:05:11;;;;;;;32.30;14.35;;;6.20;99.90;;;;;;4975226;28;20038;-68
2020/12/22 03:07:37;;;;;;;35.00;14.88;;;6.20;99.90;;;;;;4976359;28;20479;-68
2020/12/22 03:10:07;;;;;;;31.60;14.73;;;6.20;99.90;;;;;;4957777;28;20046;-68
2020/12/22 03:12:33;;;;;;;34.38;15.82;;;6.20;99.90;;;;;;4956687;28;20937;-68
2020/12/22 03:14:59;;;;;;;30.60;14.93;;;6.30;99.90;;;;;;4975901;28;20054;-69
2020/12/22 03:17:24;;;;;;;33.40;13.77;;;6.30;99.90;;;;;;4968104;28;20142;-70
2020/12/22 03:19:50;;;;;;;32.97;15.20;;;6.40;99.90;;;;;;4969310;28;20905;-70
2020/12/22 03:22:16;;;;;;;33.00;15.10;;;6.40;99.90;;;;;;4973538;28;20035;-67
2020/12/22 03:24:41;;;;;;;31.48;14.10;;;6.40;99.90;;;;;;4974967;28;20092;-68
2020/12/22 03:27:07;;;;;;;33.30;14.77;;;6.40;99.90;;;;;;4968654;28;20093;-68
2020/12/22 03:29:33;;;;;;;34.00;15.57;;;6.40;99.90;;;;;;4967739;28;20061;-68
2020/12/22 03:31:58;;;;;;;30.92;14.52;;;6.50;99.90;;;;;;4977315;28;20101;-68
2020/12/22 03:34:25;;;;;;;34.30;15.45;;;6.50;99.90;;;;;;4957581;28;20034;-68
2020/12/22 03:36:51;;;;;;;34.60;15.85;;;6.50;99.90;;;;;;4973287;28;20031;-67
2020/12/22 03:39:18;;;;;;;34.45;15.80;;;6.50;99.90;;;;;;4972178;28;20060;-68
2020/12/22 03:41:44;;;;;;;33.13;15.65;;;6.60;99.90;;;;;;4974353;28;20030;-70
2020/12/22 03:44:11;;;;;;;36.20;14.75;;;6.60;99.90;;;;;;4975492;28;20407;-68
2020/12/22 03:46:38;;;;;;;31.83;15.35;;;6.60;99.90;;;;;;4967638;28;20027;-68
2020/12/22 03:49:03;;;;;;;32.60;14.98;;;6.70;99.90;;;;;;4975080;28;20288;-67
2020/12/22 03:51:29;;;;;;;30.70;14.88;;;6.80;99.90;;;;;;4960743;28;20054;-67
2020/12/22 03:53:55;;;;;;;32.67;15.38;;;6.80;99.90;;;;;;4978772;28;20031;-67
2020/12/22 03:56:21;;;;;;;30.25;14.57;;;6.80;99.90;;;;;;4977216;28;20559;-67
2020/12/22 03:58:46;;;;;;;35.90;14.63;;;6.80;99.90;;;;;;4978758;28;20092;-68
2020/12/22 04:01:13;;;;;;;31.52;15.23;;;6.80;99.90;;;;;;4978632;28;20030;-68
2020/12/22 04:03:39;;;;;;;33.88;13.98;;;6.80;99.90;;;;;;4978895;28;20549;-67
2020/12/22 04:06:05;;;;;;;31.02;13.70;;;6.80;99.90;;;;;;4978481;28;20084;-67
2020/12/22 04:08:30;;;;;;;31.25;14.93;;;6.80;99.90;;;;;;4976974;28;20499;-67
2020/12/22 04:10:56;;;;;;;27.63;13.77;;;6.80;99.90;;;;;;4967432;28;20031;-67
2020/12/22 04:13:22;;;;;;;33.10;14.77;;;6.80;99.90;;;;;;4976797;28;20042;-67
2020/12/22 04:15:48;;;;;;;33.20;15.15;;;6.90;99.90;;;;;;4973422;28;20099;-67
2020/12/22 04:18:13;;;;;;;34.03;15.57;;;7.00;99.90;;;;;;4977960;28;20821;-67
2020/12/22 04:20:40;;;;;;;32.10;15.27;;;7.00;99.90;;;;;;4977274;28;20118;-67
2020/12/22 04:23:06;;;;;;;34.65;15.18;;;7.00;99.90;;;;;;4978257;28;20899;-67
2020/12/22 04:25:31;;;;;;;32.63;15.07;;;7.00;99.90;;;;;;4976043;28;20050;-68
2020/12/22 04:27:57;;;;;;;32.38;15.30;;;7.00;99.90;;;;;;4978249;28;20034;-67
2020/12/22 04:30:23;;;;;;;30.33;14.50;;;7.10;99.90;;;;;;4976571;28;20031;-67
2020/12/22 04:32:48;;;;;;;28.77;14.48;;;7.20;99.90;;;;;;4959477;28;20089;-66
2020/12/22 04:35:14;;;;;;;32.17;15.65;;;7.20;99.90;;;;;;4959589;28;20042;-66
2020/12/22 04:37:40;;;;;;;30.45;15.20;;;7.20;99.90;;;;;;4970363;28;20149;-66
2020/12/22 04:40:06;;;;;;;29.58;14.50;;;7.30;99.90;;;;;;4978354;28;20061;-67
2020/12/22 04:42:33;;;;;;;30.67;14.63;;;7.30;99.90;;;;;;4974116;28;20023;-67
2020/12/22 04:45:00;;;;;;;35.13;17.55;;;7.30;99.90;;;;;;4977490;28;20030;-67
2020/12/22 04:47:29;;;;;;;34.65;14.50;;;7.40;99.90;;;;;;4975723;28;20409;-67
2020/12/22 04:49:59;;;;;;;29.23;14.15;;;7.40;99.90;;;;;;4976897;28;20036;-67
2020/12/22 04:52:27;;;;;;;29.83;14.75;;;7.40;99.90;;;;;;4975485;28;20501;-67
2020/12/22 04:54:52;;;;;;;25.67;13.93;;;7.50;99.90;;;;;;4975911;28;20061;-67
2020/12/22 04:57:26;;;;;;;26.73;13.98;;;7.50;99.90;;;;;;4975791;28;20034;-67
2020/12/22 04:59:52;;;;;;;25.30;13.65;;;7.50;99.90;;;;;;4972815;28;20481;-66
2020/12/22 05:02:20;;;;;;;34.80;19.10;;;7.50;99.90;;;;;;4975590;28;20034;-67
2020/12/22 05:04:45;;;;;;;26.00;13.90;;;7.60;99.90;;;;;;4974372;28;20026;-67
2020/12/22 05:07:11;;;;;;;27.65;13.60;;;7.60;99.90;;;;;;4975506;28;20744;-67
2020/12/22 05:09:36;;;;;;;27.27;13.85;;;7.60;99.90;;;;;;4974631;28;20042;-67
2020/12/22 05:12:02;;;;;;;28.08;12.98;;;7.60;99.90;;;;;;4977730;28;20034;-68
2020/12/22 05:14:30;;;;;;;25.85;13.82;;;7.60;99.90;;;;;;4974828;28;20042;-68
2020/12/22 05:16:56;;;;;;;26.13;13.70;;;7.70;99.90;;;;;;4976670;28;20038;-68
2020/12/22 05:19:22;;;;;;;27.17;13.38;;;7.70;99.90;;;;;;4957230;28;20030;-68
2020/12/22 05:21:50;;;;;;;26.77;14.18;;;7.70;99.90;;;;;;4952860;28;20030;-68
2020/12/22 05:24:17;;;;;;;25.20;13.52;;;7.80;99.90;;;;;;4974357;28;20113;-68
2020/12/22 05:26:44;;;;;;;28.50;13.68;;;7.70;99.90;;;;;;4975203;28;20150;-68
2020/12/22 05:29:18;;;;;;;26.52;14.50;;;7.80;99.90;;;;;;4970213;28;20039;-71
2020/12/22 05:31:48;;;;;;;29.27;14.55;;;7.80;99.90;;;;;;4976600;28;20118;-73
2020/12/22 05:34:15;;;;;;;29.30;14.63;;;7.80;99.90;;;;;;4976032;28;20091;-71
2020/12/22 05:36:43;;;;;;;26.80;14.30;;;7.90;99.90;;;;;;4969659;28;20034;-69
2020/12/22 05:39:10;;;;;;;27.05;14.55;;;7.90;99.90;;;;;;4977352;28;20038;-68
2020/12/22 05:41:37;;;;;;;27.50;13.77;;;7.90;99.90;;;;;;4976661;28;20039;-69
2020/12/22 05:44:07;;;;;;;28.30;14.23;;;8.00;99.90;;;;;;4976467;28;20553;-69
2020/12/22 05:46:39;;;;;;;23.45;12.82;;;8.10;99.90;;;;;;4957550;28;20038;-69
2020/12/22 05:49:07;;;;;;;20.38;11.65;;;8.10;99.90;;;;;;4976737;28;20847;-69
2020/12/22 05:51:33;;;;;;;23.38;12.00;;;8.10;99.90;;;;;;4975449;28;20031;-69
2020/12/22 05:54:06;;;;;;;20.25;11.40;;;8.20;99.90;;;;;;4977197;28;20046;-70
2020/12/22 05:56:32;;;;;;;26.38;12.10;;;8.30;99.90;;;;;;4974323;28;20133;-68
2020/12/22 05:58:58;;;;;;;18.42;10.57;;;8.40;99.90;;;;;;4976895;28;20077;-71
2020/12/22 06:01:30;;;;;;;15.05;9.93;;;8.30;99.90;;;;;;4975044;28;20589;-68
2020/12/22 06:03:57;;;;;;;16.77;8.80;;;8.40;99.90;;;;;;4977220;28;20104;-68
2020/12/22 06:06:26;;;;;;;16.92;8.60;;;8.40;99.90;;;;;;4974820;28;20487;-69
2020/12/22 06:08:52;;;;;;;14.95;8.15;;;8.50;99.90;;;;;;4971540;28;20070;-69
2020/12/22 06:11:18;;;;;;;14.93;8.32;;;8.50;99.90;;;;;;4972766;28;20026;-70
2020/12/22 06:13:47;;;;;;;14.57;8.00;;;8.50;99.90;;;;;;4976039;28;20101;-72
2020/12/22 06:16:17;;;;;;;15.05;8.70;;;8.50;99.90;;;;;;4976515;28;20035;-69
2020/12/22 06:18:44;;;;;;;12.63;7.20;;;8.50;99.90;;;;;;4977075;28;20044;-68
2020/12/22 06:21:11;;;;;;;13.50;7.53;;;8.60;99.90;;;;;;4979306;28;20022;-68
2020/12/22 06:23:38;;;;;;;16.88;9.23;;;8.60;99.90;;;;;;4975529;28;20033;-68
2020/12/22 06:26:04;;;;;;;11.68;5.70;;;8.60;99.90;;;;;;4976168;28;20029;-68
2020/12/22 06:28:31;;;;;;;10.02;5.60;;;8.70;99.90;;;;;;4976630;28;20041;-68
2020/12/22 06:30:56;;;;;;;10.07;6.18;;;8.70;99.90;;;;;;4979233;28;20824;-70
2020/12/22 06:33:25;;;;;;;9.13;5.70;;;8.70;99.90;;;;;;4970578;28;20045;-69
2020/12/22 06:36:09;;;;;;;8.15;5.53;;;8.70;99.90;;;;;;4973329;28;20038;-67
2020/12/22 06:38:51;;;;;;;10.35;5.75;;;8.70;99.90;;;;;;4976554;28;20077;-71
2020/12/22 06:41:39;;;;;;;12.70;7.13;;;8.70;99.90;;;;;;4979105;28;20026;-69
2020/12/22 06:44:11;;;;;;;10.05;6.00;;;8.70;99.90;;;;;;4972940;28;20045;-68
2020/12/22 06:46:39;;;;;;;16.42;8.75;;;8.80;99.90;;;;;;4977801;28;20042;-69
2020/12/22 06:49:06;;;;;;;10.75;5.05;;;8.80;99.90;;;;;;4967154;28;20333;-69
2020/12/22 06:51:34;;;;;;;7.75;5.00;;;8.90;99.90;;;;;;4976694;28;20520;-69
2020/12/22 06:54:01;;;;;;;13.80;5.38;;;8.90;99.90;;;;;;4978188;28;20058;-68
2020/12/22 06:56:50;;;;;;;7.93;4.75;;;8.90;99.90;;;;;;4976813;28;20034;-69
2020/12/22 06:59:37;;;;;;;10.30;5.05;;;8.90;99.90;;;;;;4978103;28;20073;-69
2020/12/22 07:02:03;;;;;;;7.82;3.88;;;9.00;99.90;;;;;;4970697;28;20034;-69
2020/12/22 07:04:39;;;;;;;7.18;4.13;;;9.00;99.90;;;;;;4977408;28;20030;-69
2020/12/22 07:07:05;;;;;;;7.25;3.60;;;9.00;99.90;;;;;;4978391;28;20034;-68
2020/12/22 07:09:39;;;;;;;5.53;3.33;;;9.00;99.90;;;;;;4976848;28;20061;-68
2020/12/22 07:12:10;;;;;;;6.25;3.40;;;9.00;99.90;;;;;;4960117;28;20042;-69
2020/12/22 07:14:40;;;;;;;4.63;3.42;;;9.00;99.90;;;;;;4977415;28;20046;-68
2020/12/22 07:17:06;;;;;;;7.90;3.50;;;9.00;99.90;;;;;;4976213;28;20073;-68
2020/12/22 07:19:34;;;;;;;6.28;3.17;;;9.00;99.90;;;;;;4977170;28;20031;-68
2020/12/22 07:22:05;;;;;;;4.78;2.85;;;9.10;99.90;;;;;;4976805;28;20030;-70
2020/12/22 07:24:33;;;;;;;3.95;2.65;;;9.10;99.90;;;;;;4977959;28;20081;-72
2020/12/22 07:26:59;;;;;;;5.00;2.90;;;9.10;99.90;;;;;;4977864;28;20161;-72
2020/12/22 07:29:24;;;;;;;4.82;2.17;;;9.20;99.90;;;;;;4974477;28;20749;-72
2020/12/22 07:31:51;;;;;;;3.85;2.30;;;9.20;99.90;;;;;;4982545;28;20045;-73
2020/12/22 07:34:16;;;;;;;5.22;2.20;;;9.20;99.90;;;;;;4967705;28;20038;-71
2020/12/22 07:36:42;;;;;;;2.92;2.20;;;9.30;99.90;;;;;;4980439;28;20447;-71
2020/12/22 07:39:21;;;;;;;4.40;2.40;;;9.30;99.90;;;;;;4974105;28;20053;-71
2020/12/22 07:41:49;;;;;;;3.60;1.90;;;9.30;99.90;;;;;;4981120;28;20406;-70
2020/12/22 07:44:16;;;;;;;3.20;1.80;;;9.40;99.90;;;;;;4974653;28;20031;-71
2020/12/22 07:46:43;;;;;;;3.13;1.90;;;9.50;99.90;;;;;;4980170;28;20820;-80
2020/12/22 07:49:12;;;;;;;6.95;4.15;;;9.50;99.90;;;;;;4975779;28;20135;-73
2020/12/22 07:51:46;;;;;;;3.13;1.95;;;9.60;99.90;;;;;;4977859;28;20491;-79
2020/12/22 07:54:12;;;;;;;2.25;1.50;;;9.60;99.90;;;;;;4981832;28;20076;-73
2020/12/22 07:56:43;;;;;;;3.15;1.67;;;9.60;99.90;;;;;;4971524;28;20137;-72
2020/12/22 07:59:10;;;;;;;1.63;1.30;;;9.70;99.90;;;;;;4973797;28;20113;-71
2020/12/22 08:01:44;;;;;;;1.50;1.35;;;9.70;99.90;;;;;;4979924;28;20041;-72
2020/12/22 08:04:15;;;;;;;3.65;1.50;;;9.70;99.90;;;;;;4981975;28;20570;-72
2020/12/22 08:06:51;;;;;;;2.95;1.48;;;9.80;99.90;;;;;;4979811;28;20042;-72
2020/12/22 08:09:24;;;;;;;2.08;1.20;;;9.80;99.90;;;;;;4980384;28;20034;-72
2020/12/22 08:11:53;;;;;;;2.15;1.15;;;9.80;99.90;;;;;;4974410;28;20034;-72
2020/12/22 08:14:20;;;;;;;1.42;1.20;;;9.90;99.90;;;;;;4980670;28;20034;-72
2020/12/22 08:16:48;;;;;;;1.15;0.88;;;10.00;99.90;;;;;;4979329;28;20038;-72
2020/12/22 08:19:14;;;;;;;3.67;1.40;;;10.10;99.90;;;;;;4980894;28;20406;-72
2020/12/22 08:21:40;;;;;;;6.78;1.42;;;10.10;99.90;;;;;;4978400;28;20034;-72
2020/12/22 08:24:06;;;;;;;1.50;1.10;;;10.10;99.90;;;;;;4975197;28;20062;-72
2020/12/22 08:26:32;;;;;;;0.82;0.70;;;10.20;99.90;;;;;;4977832;28;20096;-77
2020/12/22 08:29:01;;;;;;;2.22;1.30;;;10.20;99.90;;;;;;4979737;28;20121;-72
2020/12/22 08:31:27;;;;;;;6.45;3.60;;;10.20;99.90;;;;;;4979598;28;20136;-72
2020/12/22 08:33:55;;;;;;;1.33;1.00;;;10.30;99.90;;;;;;4971587;28;20034;-72
2020/12/22 08:36:25;;;;;;;1.65;0.60;;;10.30;99.90;;;;;;4968199;28;20046;-72
2020/12/22 08:38:51;;;;;;;2.15;0.63;;;10.40;99.90;;;;;;4972423;28;20130;-71
2020/12/22 08:41:20;;;;;;;0.98;0.70;;;10.40;99.90;;;;;;4980833;28;20050;-72
2020/12/22 08:43:51;;;;;;;2.10;0.68;;;10.50;99.90;;;;;;4980126;28;20474;-71
2020/12/22 08:46:19;;;;;;;0.55;0.50;;;10.50;99.90;;;;;;4978974;28;20042;-71
2020/12/22 08:48:45;;;;;;;0.95;0.85;;;10.60;99.90;;;;;;4974287;28;20038;-67
2020/12/22 08:51:11;;;;;;;0.88;0.50;;;10.60;99.90;;;;;;4980940;28;20030;-71
2020/12/22 08:53:48;;;;;;;0.70;0.70;;;10.70;99.90;;;;;;4979117;28;20057;-72
2020/12/22 08:56:14;;;;;;;6.72;1.65;;;10.70;99.90;;;;;;4969603;28;20840;-70
2020/12/22 08:58:53;;;;;;;8.80;4.45;;;10.70;99.90;;;;;;4977558;28;20041;-73
2020/12/22 09:01:20;;;;;;;1.00;0.65;;;10.80;99.90;;;;;;4978398;28;20042;-78
2020/12/22 09:04:04;;;;;;;3.42;1.88;;;10.80;99.90;;;;;;4972616;28;20474;-74
2020/12/22 09:06:39;;;;;;;1.85;0.90;;;10.80;99.90;;;;;;4980120;28;20054;-74
2020/12/22 09:09:30;;;;;;;1.05;0.98;;;10.90;99.90;;;;;;4980659;28;20800;-71
2020/12/22 09:12:10;;;;;;;16.90;9.23;;;11.00;99.90;;;;;;4964424;28;20046;-74
2020/12/22 09:14:44;;;;;;;2.28;1.55;;;11.10;99.90;;;;;;4962257;28;20841;-74
2020/12/22 09:17:11;;;;;;;10.35;9.30;;;11.20;99.90;;;;;;4980437;28;20121;-74
2020/12/22 09:19:52;;;;;;;1.58;1.33;;;11.40;99.90;;;;;;4978226;28;20038;-74
2020/12/22 09:22:24;;;;;;;2.45;1.25;;;11.50;99.90;;;;;;4977703;28;20034;-75
2020/12/22 09:24:55;;;;;;;7.70;4.75;;;11.60;99.90;;;;;;4978834;28;20528;-73
2020/12/22 09:27:31;;;;;;;7.25;3.35;;;11.60;99.90;;;;;;4979935;28;20057;-75
2020/12/22 09:29:58;;;;;;;5.43;2.78;;;11.60;99.90;;;;;;4974127;28;20491;-75
2020/12/22 09:32:24;;;;;;;10.27;5.03;;;11.60;99.90;;;;;;4973879;28;20321;-74
2020/12/22 09:34:50;;;;;;;9.20;4.35;;;11.60;99.90;;;;;;4980731;28;20030;-73
2020/12/22 09:37:15;;;;;;;1.50;0.90;;;11.60;99.90;;;;;;4977043;28;20379;-73
2020/12/22 09:39:42;;;;;;;14.40;6.63;;;11.70;99.90;;;;;;4975734;28;20111;-72
2020/12/22 09:42:08;;;;;;;8.40;3.38;;;11.70;99.90;;;;;;4980306;28;20429;-72
2020/12/22 09:44:37;;;;;;;8.82;4.30;;;11.80;99.90;;;;;;4980120;28;20035;-72
2020/12/22 09:47:03;;;;;;;2.92;1.52;;;11.80;99.90;;;;;;4974401;28;20039;-72
2020/12/22 09:49:29;;;;;;;10.23;4.43;;;11.80;99.90;;;;;;4977201;28;20357;-71
2020/12/22 09:51:55;;;;;;;4.68;2.67;;;11.80;99.90;;;;;;4980179;28;20048;-73
2020/12/22 09:54:22;;;;;;;1.50;0.90;;;11.80;99.90;;;;;;4976148;28;20057;-72
2020/12/22 09:56:49;;;;;;;5.35;3.05;;;11.80;99.90;;;;;;4978085;28;20039;-72
2020/12/22 09:59:17;;;;;;;10.65;4.78;;;11.80;99.90;;;;;;4979494;28;20042;-72
2020/12/22 10:01:43;;;;;;;4.22;2.67;;;11.80;99.90;;;;;;4962498;28;20045;-72
2020/12/22 10:04:10;;;;;;;2.22;1.17;;;11.80;99.90;;;;;;4977537;28;20034;-74
2020/12/22 10:06:35;;;;;;;4.30;2.70;;;11.80;99.90;;;;;;4970845;28;20899;-72
2020/12/22 10:09:01;;;;;;;3.85;1.63;;;11.80;99.90;;;;;;4979127;28;20034;-72
2020/12/22 10:11:31;;;;;;;4.70;1.67;;;11.80;99.90;;;;;;4959794;28;20092;-72
2020/12/22 10:13:57;;;;;;;12.15;5.47;;;11.80;99.90;;;;;;4975284;28;20038;-72
2020/12/22 10:16:23;;;;;;;7.93;2.95;;;11.80;99.90;;;;;;4979413;28;20108;-71
2020/12/22 10:18:50;;;;;;;3.50;2.00;;;11.70;99.90;;;;;;4971664;28;20040;-73
2020/12/22 10:21:18;;;;;;;15.65;6.25;;;11.70;99.90;;;;;;4978899;28;20487;-72
2020/12/22 10:23:44;;;;;;;13.98;5.63;;;11.70;99.90;;;;;;4965802;28;20719;-72
2020/12/22 10:26:15;;;;;;;2.75;1.83;;;11.70;99.90;;;;;;4976846;28;20061;-72
2020/12/22 10:28:42;;;;;;;12.02;5.20;;;11.70;99.90;;;;;;4978128;28;20033;-72
2020/12/22 10:31:16;;;;;;;1.00;0.80;;;11.80;99.90;;;;;;4980140;28;20486;-72
2020/12/22 10:33:42;;;;;;;23.35;7.82;;;11.80;99.90;;;;;;4977572;28;20034;-72
2020/12/22 10:36:12;;;;;;;20.85;6.32;;;11.80;99.90;;;;;;4966814;28;20048;-71
2020/12/22 10:38:38;;;;;;;27.80;12.05;;;11.80;99.90;;;;;;4978382;28;20084;-72
2020/12/22 10:41:04;;;;;;;6.72;4.00;;;11.90;99.90;;;;;;4977467;28;20526;-72
2020/12/22 10:43:29;;;;;;;1.25;1.02;;;11.90;99.90;;;;;;4977530;28;20859;-72
2020/12/22 10:45:59;;;;;;;2.78;1.38;;;12.00;99.90;;;;;;4979062;28;20577;-72
2020/12/22 10:48:25;;;;;;;3.28;1.42;;;12.00;99.90;;;;;;4975926;28;20073;-72
2020/12/22 10:50:51;;;;;;;4.75;1.55;;;12.00;99.90;;;;;;4962854;28;20046;-72
2020/12/22 10:53:17;;;;;;;2.50;1.65;;;12.10;99.90;;;;;;4978936;28;20054;-71
2020/12/22 10:55:42;;;;;;;2.83;1.70;;;12.20;99.90;;;;;;4977202;28;20149;-72
2020/12/22 10:58:08;;;;;;;2.22;1.42;;;12.30;99.90;;;;;;4976920;28;20081;-72
2020/12/22 11:00:35;;;;;;;5.20;3.05;;;12.40;99.90;;;;;;4978212;28;20035;-72
2020/12/22 11:03:04;;;;;;;3.20;1.88;;;12.40;99.90;;;;;;4973669;28;20117;-72
2020/12/22 11:08:14;;;;;;;2.40;2.15;;;12.50;99.90;;;;;;4976917;28;20105;-72
2020/12/22 11:10:41;;;;;;;4.18;1.02;;;12.60;99.90;;;;;;4976339;28;20779;-72
2020/12/22 11:13:07;;;;;;;1.55;1.15;;;12.60;99.90;;;;;;4978461;28;20045;-71
2020/12/22 11:15:33;;;;;;;2.10;1.40;;;12.50;99.90;;;;;;4976618;28;20779;-72
2020/12/22 11:17:59;;;;;;;2.53;0.80;;;12.60;99.90;;;;;;4976075;28;20149;-72
2020/12/22 11:20:25;;;;;;;1.20;0.90;;;12.60;99.90;;;;;;4970341;28;20034;-74
2020/12/22 11:22:50;;;;;;;3.97;1.50;;;12.50;99.90;;;;;;4976943;28;20077;-74
2020/12/22 11:25:17;;;;;;;1.33;0.90;;;12.60;99.90;;;;;;4976814;28;20765;-74
2020/12/22 11:27:44;;;;;;;4.45;2.78;;;12.70;99.90;;;;;;4976930;28;20050;-74
2020/12/22 11:30:10;;;;;;;3.97;2.17;;;12.70;99.90;;;;;;4985086;28;20053;-73
2020/12/22 11:32:36;;;;;;;1.33;1.10;;;12.80;99.90;;;;;;4975305;28;20045;-73
2020/12/22 11:35:03;;;;;;;1.25;1.00;;;12.80;99.90;;;;;;4966875;28;20034;-74
2020/12/22 11:37:29;;;;;;;4.00;1.45;;;12.90;99.90;;;;;;4977612;28;20087;-74
2020/12/22 11:39:55;;;;;;;1.27;0.95;;;12.90;99.90;;;;;;4978556;28;20564;-74
2020/12/22 11:42:21;;;;;;;2.83;1.20;;;13.00;99.90;;;;;;4974723;28;20030;-73
2020/12/22 11:44:47;;;;;;;1.60;1.30;;;13.00;99.90;;;;;;4975047;28;20034;-73
2020/12/22 11:47:13;;;;;;;3.70;2.45;;;13.10;99.90;;;;;;4950808;28;20450;-73
2020/12/22 11:49:39;;;;;;;2.35;1.40;;;13.10;99.90;;;;;;4978488;28;20034;-75
2020/12/22 11:52:05;;;;;;;1.95;0.93;;;13.20;99.90;;;;;;4967975;28;20034;-73
2020/12/22 11:54:31;;;;;;;0.90;0.90;;;13.10;99.90;;;;;;4977822;28;20065;-75
2020/12/22 11:56:58;;;;;;;4.40;1.23;;;13.20;99.90;;;;;;4962873;28;20069;-73
2020/12/22 11:59:24;;;;;;;1.13;1.02;;;13.40;99.90;;;;;;4974150;28;20062;-74
2020/12/22 12:01:49;;;;;;;1.92;1.05;;;13.70;99.90;;;;;;4970404;28;20849;-73
2020/12/22 12:04:15;;;;;;;1.98;0.88;;;13.90;99.90;;;;;;4976086;28;20957;-74
2020/12/22 12:06:50;;;;;;;2.05;0.90;;;13.80;99.90;;;;;;4972246;28;21023;-74
2020/12/22 12:09:16;;;;;;;5.80;1.27;;;14.00;99.90;;;;;;4970170;28;20135;-73
2020/12/22 12:11:47;;;;;;;3.63;0.80;;;14.00;99.90;;;;;;4978239;28;20045;-73
2020/12/22 12:14:12;;;;;;;2.05;0.95;;;13.70;99.90;;;;;;4978430;28;20037;-73
2020/12/22 12:16:38;;;;;;;6.25;1.40;;;13.80;99.90;;;;;;4980032;28;20022;-73
2020/12/22 12:19:04;;;;;;;1.75;1.00;;;13.70;99.90;;;;;;4974588;28;20440;-74
2020/12/22 12:21:29;;;;;;;2.47;1.40;;;13.70;99.90;;;;;;4988774;28;20038;-73
2020/12/22 12:23:55;;;;;;;3.35;1.75;;;13.90;99.90;;;;;;4979436;28;20390;-73
2020/12/22 12:26:23;;;;;;;2.10;0.68;;;14.20;99.90;;;;;;4977158;28;20042;-73
2020/12/22 12:28:49;;;;;;;4.47;1.70;;;14.50;99.90;;;;;;4972732;28;20037;-74
2020/12/22 12:31:17;;;;;;;1.92;1.05;;;14.60;99.90;;;;;;4977513;28;20426;-74
2020/12/22 12:33:43;;;;;;;6.15;1.83;;;14.60;99.90;;;;;;4980997;28;20034;-73
2020/12/22 12:36:12;;;;;;;2.92;1.80;;;14.60;99.90;;;;;;4978044;28;20045;-74
2020/12/22 12:38:38;;;;;;;2.17;1.10;;;14.60;99.90;;;;;;4980479;28;20092;-73
2020/12/22 12:41:04;;;;;;;3.95;1.90;;;14.60;99.90;;;;;;4978700;28;20042;-73
2020/12/22 12:43:29;;;;;;;1.95;0.82;;;14.70;99.90;;;;;;4979087;28;20036;-73
2020/12/22 12:45:55;;;;;;;2.80;1.38;;;14.50;99.90;;;;;;4980152;28;20625;-73
2020/12/22 12:48:21;;;;;;;2.55;1.20;;;14.30;99.90;;;;;;4979155;28;20038;-73